Time;durP1;ratioP1;P1;durP2;ratioP2;P2;SDS_P1;SDS_P2;PMS_P1;PMS_P2;Temp;Humidity;BMP_temperature;BMP_pressure;BME280_temperature;BME280_humidity;BME280_pressure;Samples;Min_cycle;Max_cycle;Signal;HPM_P1;HPM_P2
2022/02/09 00:07:46;;;;;;;0.65;0.65;;;;;;;;;;4954204;28;20158;-91
2022/02/09 00:10:13;;;;;;;0.32;0.32;;;;;;;;;;4988378;28;20121;-90
2022/02/09 00:15:49;;;;;;;0.55;0.35;;;;;;;;;;5006125;28;20704;-90
2022/02/09 00:39:11;;;;;;;0.20;0.20;;;;;;;;;;4953961;28;20393;-90
2022/02/09 01:37:57;;;;;;;0.70;0.38;;;;;;;;;;5004233;28;20044;-91
2022/02/09 01:56:59;;;;;;;0.52;0.50;;;;;;;;;;5001304;28;20045;-92
2022/02/09 01:59:26;;;;;;;0.20;0.20;;;;;;;;;;5007237;28;20022;-91
2022/02/09 02:01:52;;;;;;;0.35;0.32;;;;;;;;;;5007638;28;20877;-90
2022/02/09 02:04:23;;;;;;;0.77;0.45;;;;;;;;;;4983145;28;20040;-92
2022/02/09 02:06:50;;;;;;;0.00;0.00;;;;;;;;;;5003836;28;20048;-92
2022/02/09 02:09:17;;;;;;;0.15;0.15;;;;;;;;;;4976591;28;20486;-88
2022/02/09 02:11:51;;;;;;;1.85;0.40;;;;;;;;;;5001902;28;20034;-89
2022/02/09 02:14:31;;;;;;;11.60;1.27;;;;;;;;;;4986768;28;20121;-88
2022/02/09 02:17:05;;;;;;;1.45;0.82;;;;;;;;;;4982636;28;20057;-89
2022/02/09 02:19:37;;;;;;;0.32;0.32;;;;;;;;;;5004449;28;20034;-89
2022/02/09 02:22:30;;;;;;;1.27;0.60;;;;;;;;;;4999251;28;20033;-89
2022/02/09 02:25:31;;;;;;;1.13;0.30;;;;;;;;;;5001044;28;20041;-91
2022/02/09 02:56:53;;;;;;;0.47;0.30;;;;;;;;;;5008753;28;20056;-91
2022/02/09 03:13:02;;;;;;;0.10;0.10;;;;;;;;;;4894542;29;20036;-92
2022/02/09 03:15:37;;;;;;;0.40;0.40;;;;;;;;;;4901778;29;20273;-92
2022/02/09 03:20:47;;;;;;;0.95;0.73;;;;;;;;;;4897828;29;20036;-92
2022/02/09 03:24:07;;;;;;;0.10;0.10;;;;;;;;;;4903045;29;20033;-91
2022/02/09 03:26:27;;;;;;;0.15;0.15;;;;;;;;;;4896560;29;20813;-93
2022/02/09 03:42:38;;;;;;;0.13;0.13;;;;;;;;;;5006422;28;20502;-92
2022/02/09 03:56:12;;;;;;;0.20;0.20;;;;;;;;;;5006784;28;20084;-90
2022/02/09 03:58:16;;;;;;;0.43;0.43;;;;;;;;;;5004934;28;20049;-90
2022/02/09 04:00:44;;;;;;;0.25;0.25;;;;;;;;;;5003895;28;20049;-90
2022/02/09 04:03:14;;;;;;;0.10;0.10;;;;;;;;;;5006552;28;20708;-91
2022/02/09 04:05:41;;;;;;;0.10;0.10;;;;;;;;;;5006209;28;20442;-90
2022/02/09 04:08:14;;;;;;;0.20;0.20;;;;;;;;;;5005296;28;20033;-89
2022/02/09 04:10:45;;;;;;;0.38;0.38;;;;;;;;;;5001302;28;20125;-90
2022/02/09 04:18:36;;;;;;;0.00;0.00;;;;;;;;;;5006579;28;20301;-93
2022/02/09 04:38:39;;;;;;;3.15;0.43;;;;;;;;;;5002061;28;20044;-93
2022/02/09 04:52:00;;;;;;;0.10;0.10;;;;;;;;;;4919632;29;20550;-96
2022/02/09 04:54:33;;;;;;;0.10;0.10;;;;;;;;;;4914751;29;20409;-96
2022/02/09 05:03:31;;;;;;;4.75;0.70;;;;;;;;;;4861694;29;20036;-96
2022/02/09 05:20:00;;;;;;;0.35;0.35;;;;;;;;;;4860706;29;20146;-91
2022/02/09 05:29:26;;;;;;;0.50;0.50;;;;;;;;;;4908165;29;20345;-92
2022/02/09 05:31:52;;;;;;;0.15;0.15;;;;;;;;;;4884480;29;20029;-91
2022/02/09 05:34:18;;;;;;;0.10;0.10;;;;;;;;;;4904292;29;20047;-89
2022/02/09 05:36:44;;;;;;;0.20;0.20;;;;;;;;;;4957650;28;20276;-92
2022/02/09 05:39:10;;;;;;;0.87;0.87;;;;;;;;;;5006221;28;20089;-90
2022/02/09 05:41:42;;;;;;;0.45;0.45;;;;;;;;;;4990638;28;20273;-91
2022/02/09 05:44:10;;;;;;;0.15;0.15;;;;;;;;;;5004426;28;20503;-88
2022/02/09 05:56:43;;;;;;;0.00;0.00;;;;;;;;;;5005314;28;20482;-86
2022/02/09 06:01:36;;;;;;;0.10;0.10;;;;;;;;;;5009006;28;20042;-87
2022/02/09 06:04:02;;;;;;;0.60;0.52;;;;;;;;;;5006671;28;20522;-87
2022/02/09 06:06:28;;;;;;;0.50;0.50;;;;;;;;;;5005966;28;20093;-85
2022/02/09 06:08:56;;;;;;;0.10;0.10;;;;;;;;;;4986304;28;20308;-85
2022/02/09 06:21:56;;;;;;;0.10;0.10;;;;;;;;;;5005300;28;20145;-89
2022/02/09 06:24:22;;;;;;;0.10;0.10;;;;;;;;;;5006012;28;20894;-87
2022/02/09 06:26:49;;;;;;;0.43;0.40;;;;;;;;;;5004712;28;20029;-87
2022/02/09 06:29:15;;;;;;;0.43;0.43;;;;;;;;;;5007720;28;20056;-85
2022/02/09 06:31:43;;;;;;;0.10;0.10;;;;;;;;;;5011135;28;20049;-88
2022/02/09 06:34:12;;;;;;;0.10;0.10;;;;;;;;;;5013350;28;20036;-90
2022/02/09 06:36:42;;;;;;;0.55;0.40;;;;;;;;;;5009246;28;20048;-90
2022/02/09 06:39:10;;;;;;;0.15;0.15;;;;;;;;;;5012342;28;20056;-91
2022/02/09 06:41:36;;;;;;;0.10;0.10;;;;;;;;;;5008640;28;20504;-90
2022/02/09 06:44:03;;;;;;;0.38;0.38;;;;;;;;;;5008137;28;20037;-88
2022/02/09 06:46:34;;;;;;;0.00;0.00;;;;;;;;;;5008327;28;20100;-88
2022/02/09 06:49:05;;;;;;;0.55;0.15;;;;;;;;;;5007053;28;20152;-88
2022/02/09 06:51:34;;;;;;;0.43;0.43;;;;;;;;;;5007249;28;20022;-88
2022/02/09 06:54:08;;;;;;;0.17;0.17;;;;;;;;;;5007436;28;20100;-89
2022/02/09 06:57:31;;;;;;;0.10;0.10;;;;;;;;;;5007955;28;20026;-89
2022/02/09 06:59:30;;;;;;;0.20;0.20;;;;;;;;;;4996243;28;20019;-88
2022/02/09 07:01:59;;;;;;;1.00;0.95;;;;;;;;;;4987448;28;20038;-87
2022/02/09 07:04:26;;;;;;;0.32;0.32;;;;;;;;;;5009499;28;20113;-88
2022/02/09 07:06:52;;;;;;;0.10;0.10;;;;;;;;;;5008419;28;20041;-88
2022/02/09 07:09:18;;;;;;;0.20;0.20;;;;;;;;;;4983512;28;20503;-86
2022/02/09 07:11:45;;;;;;;0.88;0.88;;;;;;;;;;5006102;28;20096;-89
2022/02/09 07:14:11;;;;;;;0.10;0.10;;;;;;;;;;5006604;28;20038;-89
2022/02/09 07:16:38;;;;;;;0.10;0.10;;;;;;;;;;4988029;28;20046;-88
2022/02/09 07:19:08;;;;;;;0.93;0.50;;;;;;;;;;5004483;28;20064;-88
2022/02/09 07:21:36;;;;;;;0.75;0.57;;;;;;;;;;5001174;28;20116;-87
2022/02/09 07:24:03;;;;;;;0.20;0.20;;;;;;;;;;5002853;28;20026;-88
2022/02/09 07:26:42;;;;;;;0.05;0.05;;;;;;;;;;5004108;28;20030;-87
2022/02/09 07:29:09;;;;;;;0.10;0.10;;;;;;;;;;5002822;28;20046;-86
2022/02/09 07:31:35;;;;;;;0.10;0.10;;;;;;;;;;5006683;28;20025;-89
2022/02/09 07:34:01;;;;;;;0.00;0.00;;;;;;;;;;4987739;28;20516;-86
2022/02/09 07:36:53;;;;;;;0.00;0.00;;;;;;;;;;5005077;28;20492;-93
2022/02/09 07:39:38;;;;;;;0.40;0.40;;;;;;;;;;4997536;28;20045;-94
2022/02/09 07:56:42;;;;;;;3.97;0.43;;;;;;;;;;4864395;29;20051;-96
2022/02/09 07:59:09;;;;;;;0.10;0.10;;;;;;;;;;4860736;29;20029;-94
2022/02/09 08:08:07;;;;;;;0.10;0.10;;;;;;;;;;4874419;29;20044;-94
2022/02/09 08:29:30;;;;;;;0.10;0.10;;;;;;;;;;4876172;23;20112;-86
2022/02/09 08:34:27;;;;;;;0.47;0.32;;;;;;;;;;5044702;28;20040;-87
2022/02/09 08:36:55;;;;;;;0.20;0.20;;;;;;;;;;5043470;28;20035;-86
2022/02/09 08:39:21;;;;;;;0.30;0.30;;;;;;;;;;5042443;28;20029;-87
2022/02/09 08:41:47;;;;;;;0.10;0.10;;;;;;;;;;5043823;28;20017;-86
2022/02/09 08:44:13;;;;;;;2.35;0.47;;;;;;;;;;5042135;28;20403;-87
2022/02/09 08:46:42;;;;;;;0.52;0.52;;;;;;;;;;5044425;28;20025;-86
2022/02/09 08:49:09;;;;;;;0.52;0.52;;;;;;;;;;5013079;28;20076;-88
2022/02/09 08:51:35;;;;;;;0.20;0.20;;;;;;;;;;5039411;28;20047;-87
2022/02/09 08:54:01;;;;;;;0.30;0.30;;;;;;;;;;5043551;28;20258;-86
2022/02/09 08:56:29;;;;;;;0.40;0.40;;;;;;;;;;5043417;28;20036;-88
2022/02/09 08:58:57;;;;;;;0.30;0.30;;;;;;;;;;5043503;28;20029;-88
2022/02/09 09:01:37;;;;;;;0.30;0.30;;;;;;;;;;5024309;28;20044;-87
2022/02/09 09:04:14;;;;;;;0.40;0.40;;;;;;;;;;5043459;28;20517;-87
2022/02/09 09:06:42;;;;;;;0.35;0.35;;;;;;;;;;5041759;28;20068;-87
2022/02/09 09:18:34;;;;;;;0.20;0.20;;;;;;;;;;5020909;28;20455;-88
2022/02/09 10:02:22;;;;;;;0.10;0.10;;;;;;;;;;4867375;29;20085;-87
2022/02/09 10:04:54;;;;;;;0.20;0.20;;;;;;;;;;4882234;29;20856;-89
2022/02/09 10:35:06;;;;;;;0.15;0.15;;;;;;;;;;4927434;28;20036;-87
2022/02/09 10:37:32;;;;;;;0.15;0.15;;;;;;;;;;4938165;28;20126;-87
2022/02/09 10:40:02;;;;;;;1.20;0.90;;;;;;;;;;5022130;28;20075;-88
2022/02/09 10:42:48;;;;;;;0.25;0.25;;;;;;;;;;4998082;28;20087;-87
2022/02/09 10:45:48;;;;;;;0.40;0.40;;;;;;;;;;5017468;28;20021;-87
2022/02/09 10:48:35;;;;;;;0.22;0.22;;;;;;;;;;5003805;28;20065;-88
2022/02/09 10:51:24;;;;;;;0.10;0.10;;;;;;;;;;5007602;28;20815;-87
2022/02/09 10:54:09;;;;;;;0.35;0.35;;;;;;;;;;5008224;28;20500;-88
2022/02/09 10:56:36;;;;;;;0.20;0.20;;;;;;;;;;5007943;28;20036;-88
2022/02/09 10:59:03;;;;;;;0.30;0.30;;;;;;;;;;5026334;28;20061;-86
2022/02/09 11:01:30;;;;;;;0.10;0.10;;;;;;;;;;5023783;28;20230;-87
2022/02/09 11:03:56;;;;;;;0.57;0.57;;;;;;;;;;5024777;28;20045;-88
2022/02/09 11:06:26;;;;;;;0.10;0.10;;;;;;;;;;5025633;28;20022;-87
2022/02/09 11:08:53;;;;;;;0.20;0.20;;;;;;;;;;5025233;28;20049;-87
2022/02/09 11:11:19;;;;;;;0.30;0.30;;;;;;;;;;5025453;28;20582;-86
2022/02/09 11:13:45;;;;;;;0.30;0.30;;;;;;;;;;5007479;28;20025;-86
2022/02/09 11:16:12;;;;;;;0.20;0.20;;;;;;;;;;5025919;28;20548;-87
2022/02/09 11:18:39;;;;;;;0.10;0.10;;;;;;;;;;5007087;28;20450;-86
2022/02/09 11:21:09;;;;;;;0.10;0.10;;;;;;;;;;5025201;28;20025;-87
2022/02/09 11:23:39;;;;;;;0.17;0.17;;;;;;;;;;5007571;28;20033;-88
2022/02/09 11:26:11;;;;;;;0.30;0.30;;;;;;;;;;5025292;28;20545;-86
2022/02/09 11:28:42;;;;;;;0.80;0.35;;;;;;;;;;5022054;28;20037;-86
2022/02/09 11:31:17;;;;;;;0.20;0.20;;;;;;;;;;5000401;28;20038;-87
2022/02/09 11:33:58;;;;;;;0.10;0.10;;;;;;;;;;5022112;28;20030;-87
2022/02/09 11:38:55;;;;;;;0.10;0.10;;;;;;;;;;5018755;28;20029;-87
2022/02/09 11:41:34;;;;;;;0.25;0.25;;;;;;;;;;5020950;28;20105;-87
2022/02/09 11:44:11;;;;;;;3.28;0.45;;;;;;;;;;5025183;28;20124;-86
2022/02/09 11:46:50;;;;;;;0.20;0.20;;;;;;;;;;5019714;28;20580;-87
2022/02/09 12:11:39;;;;;;;0.10;0.10;;;;;;;;;;5009695;28;20606;-86
2022/02/09 12:19:15;;;;;;;0.40;0.40;;;;;;;;;;5017669;28;20059;-84
2022/02/09 12:24:21;;;;;;;0.10;0.10;;;;;;;;;;5017877;28;20559;-85
2022/02/09 12:26:59;;;;;;;0.40;0.35;;;;;;;;;;5005260;28;20037;-86
2022/02/09 12:29:32;;;;;;;1.35;0.50;;;;;;;;;;4999126;28;20099;-86
2022/02/09 12:31:58;;;;;;;4.03;0.90;;;;;;;;;;5026632;28;20065;-88
2022/02/09 12:34:25;;;;;;;0.40;0.40;;;;;;;;;;5025154;28;20036;-89
2022/02/09 12:36:54;;;;;;;0.57;0.43;;;;;;;;;;5022016;28;20052;-87
2022/02/09 12:39:21;;;;;;;0.20;0.20;;;;;;;;;;5022433;28;20033;-87
2022/02/09 12:41:48;;;;;;;0.30;0.30;;;;;;;;;;5006003;28;20498;-87
2022/02/09 12:44:19;;;;;;;0.10;0.10;;;;;;;;;;5021349;28;20124;-88
2022/02/09 12:46:45;;;;;;;0.20;0.20;;;;;;;;;;5016559;28;20033;-88
2022/02/09 12:49:16;;;;;;;0.10;0.10;;;;;;;;;;5004650;28;20040;-89
2022/02/09 12:51:43;;;;;;;0.10;0.10;;;;;;;;;;5020077;28;20033;-87
2022/02/09 12:54:10;;;;;;;0.15;0.13;;;;;;;;;;5020000;28;20140;-87
2022/02/09 12:56:36;;;;;;;;;;;;;;;;;;5020958;28;20095;-87
2022/02/09 12:59:05;;;;;;;0.10;0.10;;;;;;;;;;5019528;28;19917;-87
2022/02/09 13:01:51;;;;;;;0.10;0.10;;;;;;;;;;5019207;28;20461;-87
2022/02/09 13:04:37;;;;;;;0.10;0.10;;;;;;;;;;5020278;28;20873;-87
2022/02/09 13:07:07;;;;;;;0.10;0.10;;;;;;;;;;5022174;28;20025;-87
2022/02/09 13:09:33;;;;;;;0.22;0.22;;;;;;;;;;5018207;28;20052;-87
2022/02/09 13:12:00;;;;;;;0.10;0.10;;;;;;;;;;5018241;28;20030;-88
2022/02/09 13:14:34;;;;;;;0.10;0.10;;;;;;;;;;5018467;28;20041;-86
2022/02/09 14:34:47;;;;;;;0.30;0.30;;;;;;;;;;5040866;28;20531;-86
2022/02/09 14:53:19;;;;;;;0.73;0.73;;;;;;;;;;4984667;28;20026;-87
2022/02/09 14:56:00;;;;;;;0.10;0.10;;;;;;;;;;5001510;28;20457;-85
2022/02/09 14:58:30;;;;;;;0.13;0.13;;;;;;;;;;4999755;28;20085;-85
2022/02/09 15:02:00;;;;;;;0.10;0.10;;;;;;;;;;5001272;28;20088;-86
2022/02/09 15:04:14;;;;;;;0.95;0.30;;;;;;;;;;4989912;28;20057;-87
2022/02/09 15:07:46;;;;;;;1.08;0.65;;;;;;;;;;4998340;28;20049;-87
2022/02/09 15:09:50;;;;;;;0.10;0.10;;;;;;;;;;4982717;28;20886;-87
2022/02/09 15:15:00;;;;;;;0.10;0.10;;;;;;;;;;5001126;28;20117;-86
2022/02/09 15:20:40;;;;;;;2.30;0.60;;;;;;;;;;5041079;28;20043;-87
2022/02/09 15:23:00;;;;;;;0.20;0.20;;;;;;;;;;5041494;28;20490;-86
2022/02/09 15:25:32;;;;;;;0.20;0.20;;;;;;;;;;5042286;28;20116;-87
2022/02/09 15:28:01;;;;;;;0.10;0.10;;;;;;;;;;5041155;28;20040;-89
2022/02/09 15:30:33;;;;;;;0.10;0.10;;;;;;;;;;5036597;28;20602;-88
2022/02/09 15:33:01;;;;;;;0.10;0.10;;;;;;;;;;5039584;28;20021;-88
2022/02/09 15:35:34;;;;;;;0.20;0.20;;;;;;;;;;5044333;28;20041;-87
2022/02/09 15:38:15;;;;;;;0.10;0.10;;;;;;;;;;5042365;28;20064;-87
2022/02/09 16:23:11;;;;;;;0.30;0.30;;;;;;;;;;5002721;28;20041;-86
2022/02/09 16:26:08;;;;;;;0.38;0.38;;;;;;;;;;5041500;28;20025;-87
2022/02/09 16:44:41;;;;;;;0.28;0.28;;;;;;;;;;5041949;28;20071;-85
2022/02/09 16:50:01;;;;;;;1.17;0.25;;;;;;;;;;5040262;28;20264;-85
2022/02/09 16:52:39;;;;;;;0.93;0.80;;;;;;;;;;5040029;28;20079;-83
2022/02/09 17:19:43;;;;;;;0.30;0.30;;;;;;;;;;5035561;28;20044;-83
2022/02/09 17:22:10;;;;;;;0.20;0.20;;;;;;;;;;5023374;28;20029;-85
2022/02/09 17:24:37;;;;;;;0.10;0.10;;;;;;;;;;5035390;28;20033;-79
2022/02/09 17:27:11;;;;;;;0.65;0.40;;;;;;;;;;5021112;28;20060;-79
2022/02/09 17:30:02;;;;;;;0.10;0.10;;;;;;;;;;5029286;28;20057;-79
2022/02/09 17:32:48;;;;;;;0.30;0.30;;;;;;;;;;5027532;28;20044;-79
2022/02/09 17:35:41;;;;;;;0.30;0.30;;;;;;;;;;5036268;28;20041;-79
2022/02/09 17:54:55;;;;;;;1.25;0.38;;;;;;;;;;5042542;28;20044;-80
2022/02/09 17:57:02;;;;;;;0.20;0.20;;;;;;;;;;5043583;28;20074;-78
2022/02/09 17:59:31;;;;;;;0.20;0.20;;;;;;;;;;5041662;28;20095;-79
2022/02/09 18:01:57;;;;;;;0.20;0.20;;;;;;;;;;5041474;28;20119;-79
2022/02/09 18:04:24;;;;;;;0.47;0.47;;;;;;;;;;5044651;28;20537;-80
2022/02/09 18:06:59;;;;;;;1.55;1.17;;;;;;;;;;5043578;28;20028;-82
2022/02/09 18:09:32;;;;;;;0.20;0.20;;;;;;;;;;5044280;28;20545;-81
2022/02/09 18:30:56;;;;;;;0.30;0.30;;;;;;;;;;4975262;28;20117;-93
2022/02/09 18:33:40;;;;;;;0.13;0.13;;;;;;;;;;4975481;28;20054;-91
2022/02/09 19:02:44;;;;;;;0.28;0.28;;;;;;;;;;5022965;28;20443;-82
2022/02/09 19:05:47;;;;;;;0.20;0.20;;;;;;;;;;5037460;28;20029;-82
2022/02/09 19:16:32;;;;;;;0.25;0.25;;;;;;;;;;5035508;28;20073;-86
2022/02/09 19:29:44;;;;;;;0.38;0.38;;;;;;;;;;5031406;28;20083;-90
2022/02/09 19:48:11;;;;;;;0.30;0.30;;;;;;;;;;5044994;28;20044;-85
2022/02/09 19:56:11;;;;;;;0.20;0.20;;;;;;;;;;5039353;28;20064;-89
2022/02/09 19:58:44;;;;;;;1.45;0.73;;;;;;;;;;5042211;28;20128;-89
2022/02/09 20:01:14;;;;;;;0.30;0.30;;;;;;;;;;5041836;28;20575;-88
2022/02/09 20:03:40;;;;;;;0.20;0.20;;;;;;;;;;5043022;28;20040;-90
2022/02/09 20:06:07;;;;;;;0.20;0.20;;;;;;;;;;5020119;28;20028;-80
2022/02/09 20:08:38;;;;;;;0.30;0.30;;;;;;;;;;5015975;28;20049;-81
2022/02/09 20:11:08;;;;;;;0.10;0.10;;;;;;;;;;5035838;28;20025;-80
2022/02/09 20:13:35;;;;;;;1.17;1.10;;;;;;;;;;5037143;28;20017;-81
2022/02/09 20:16:01;;;;;;;0.10;0.10;;;;;;;;;;5042976;28;20033;-79
2022/02/09 20:18:28;;;;;;;5.32;4.03;;;;;;;;;;5041961;28;20647;-80
2022/02/09 20:20:56;;;;;;;0.63;0.43;;;;;;;;;;5035989;28;20037;-80
2022/02/09 20:23:22;;;;;;;0.30;0.30;;;;;;;;;;5033662;28;20033;-80
2022/02/09 20:25:48;;;;;;;1.25;0.75;;;;;;;;;;5041203;28;20025;-78
2022/02/09 20:28:15;;;;;;;0.93;0.80;;;;;;;;;;5034342;28;20021;-79
2022/02/09 20:30:46;;;;;;;;;;;;;;;;;;5033488;28;20053;-80
2022/02/09 20:33:17;;;;;;;3.85;2.53;;;;;;;;;;5037970;28;19974;-80
2022/02/09 20:35:43;;;;;;;2.05;1.85;;;;;;;;;;5040122;28;20025;-80
2022/02/09 20:38:16;;;;;;;18.77;10.97;;;;;;;;;;5035353;28;20107;-80
2022/02/09 20:41:07;;;;;;;15.52;9.90;;;;;;;;;;5028281;28;20401;-81
2022/02/09 20:43:28;;;;;;;3.75;2.50;;;;;;;;;;5040064;28;20037;-79
2022/02/09 20:45:59;;;;;;;2.77;1.03;;;;;;;;;;5037365;28;20044;-79
2022/02/09 20:48:26;;;;;;;1.33;1.23;;;;;;;;;;5039314;28;20315;-80
2022/02/09 20:50:57;;;;;;;0.30;0.30;;;;;;;;;;5035507;28;20033;-80
2022/02/09 20:53:24;;;;;;;0.20;0.20;;;;;;;;;;5036635;28;20047;-80
2022/02/09 20:55:51;;;;;;;0.20;0.20;;;;;;;;;;5038781;28;20040;-81
2022/02/09 20:58:17;;;;;;;;;;;;;;;;;;5042524;28;20035;-80
2022/02/09 21:00:56;;;;;;;2.75;0.90;;;;;;;;;;5037758;28;20620;-80
2022/02/09 21:03:45;;;;;;;4.72;1.70;;;;;;;;;;5040957;28;20044;-81
2022/02/09 21:06:22;;;;;;;0.40;0.40;;;;;;;;;;5041725;28;20080;-80
2022/02/09 21:09:28;;;;;;;0.40;0.40;;;;;;;;;;5037147;28;20053;-80
2022/02/09 21:17:55;;;;;;;0.50;0.50;;;;;;;;;;4958729;28;20057;-80
2022/02/09 21:30:43;;;;;;;0.55;0.55;;;;;;;;;;4962086;28;20447;-80
2022/02/09 21:55:58;;;;;;;0.20;0.20;;;;;;;;;;5031639;28;20087;-79
2022/02/09 21:58:40;;;;;;;0.45;0.45;;;;;;;;;;5034715;28;20030;-79
2022/02/09 22:20:25;;;;;;;0.20;0.20;;;;;;;;;;5027985;28;20043;-81
2022/02/09 22:22:58;;;;;;;0.10;0.10;;;;;;;;;;5042718;28;20033;-81
2022/02/09 22:28:05;;;;;;;1.77;1.65;;;;;;;;;;5042379;28;20102;-83
2022/02/09 22:55:13;;;;;;;0.10;0.10;;;;;;;;;;5022689;28;20064;-84
2022/02/09 22:57:45;;;;;;;0.13;0.13;;;;;;;;;;5022769;28;20172;-84
2022/02/09 23:00:41;;;;;;;1.00;0.38;;;;;;;;;;5022947;28;20557;-84
2022/02/09 23:03:11;;;;;;;0.30;0.30;;;;;;;;;;5018189;28;20041;-83
2022/02/09 23:05:51;;;;;;;0.10;0.10;;;;;;;;;;5006314;28;20893;-83
2022/02/09 23:13:57;;;;;;;0.28;0.28;;;;;;;;;;5024145;28;20041;-84
2022/02/09 23:16:46;;;;;;;0.28;0.28;;;;;;;;;;5022605;28;20045;-83
